Time;durP1;ratioP1;P1;durP2;ratioP2;P2;SDS_P1;SDS_P2;PMS_P1;PMS_P2;Temp;Humidity;BMP_temperature;BMP_pressure;BME280_temperature;BME280_humidity;BME280_pressure;Samples;Min_cycle;Max_cycle;Signal;HPM_P1;HPM_P2
2022/06/05 00:00:22;;;;;;;11.65;7.32;;;17.20;99.90;;;;;;5023236;28;25059;-65
2022/06/05 00:03:20;;;;;;;10.65;6.88;;;17.10;99.90;;;;;;5025573;28;25090;-66
2022/06/05 00:05:50;;;;;;;10.52;7.05;;;17.00;99.90;;;;;;5002886;28;25105;-67
2022/06/05 00:08:46;;;;;;;13.75;7.70;;;16.90;99.90;;;;;;5023721;28;25069;-65
2022/06/05 00:11:12;;;;;;;11.05;7.28;;;17.00;99.90;;;;;;5017822;28;25061;-69
2022/06/05 00:13:51;;;;;;;12.27;7.20;;;16.90;99.90;;;;;;5021628;28;25075;-67
2022/06/05 00:16:20;;;;;;;13.15;7.13;;;16.90;99.90;;;;;;5019677;28;25098;-67
2022/06/05 00:18:46;;;;;;;10.35;7.15;;;16.80;99.90;;;;;;5026054;28;25155;-66
2022/06/05 00:21:13;;;;;;;13.15;7.72;;;16.90;99.90;;;;;;5026111;28;25112;-67
2022/06/05 00:23:39;;;;;;;11.63;7.28;;;16.80;99.90;;;;;;5025726;28;25097;-69
2022/06/05 00:26:20;;;;;;;12.80;7.97;;;16.80;99.90;;;;;;5017557;28;25091;-69
2022/06/05 00:29:09;;;;;;;10.52;6.72;;;16.80;99.90;;;;;;5022659;28;25061;-68
2022/06/05 00:31:57;;;;;;;14.70;7.60;;;16.80;99.90;;;;;;5022917;28;25083;-67
2022/06/05 00:34:23;;;;;;;11.93;7.03;;;16.80;99.90;;;;;;5023954;28;25082;-68
2022/06/05 00:37:16;;;;;;;12.50;7.80;;;16.80;99.90;;;;;;5025188;28;25080;-68
2022/06/05 00:40:11;;;;;;;9.45;7.38;;;16.70;99.90;;;;;;5024309;28;25132;-67
2022/06/05 00:42:37;;;;;;;11.43;7.22;;;16.70;99.90;;;;;;5029255;28;25108;-68
2022/06/05 00:45:08;;;;;;;13.45;7.80;;;16.70;99.90;;;;;;5028993;28;25092;-68
2022/06/05 00:47:34;;;;;;;11.23;6.75;;;16.60;99.90;;;;;;5028411;28;25055;-69
2022/06/05 00:50:09;;;;;;;10.10;7.60;;;16.60;99.90;;;;;;5031169;28;25100;-68
2022/06/05 00:52:37;;;;;;;13.95;8.18;;;16.50;99.90;;;;;;5037377;28;25052;-69
2022/06/05 00:55:04;;;;;;;9.98;8.00;;;16.60;99.90;;;;;;5036022;28;25079;-68
2022/06/05 00:57:32;;;;;;;12.32;7.78;;;16.50;99.90;;;;;;5037898;28;25098;-68
2022/06/05 01:00:07;;;;;;;12.60;8.27;;;16.50;99.90;;;;;;5035290;28;25071;-70
2022/06/05 01:02:33;;;;;;;12.38;7.90;;;16.50;99.90;;;;;;5029305;28;25168;-66
2022/06/05 01:04:59;;;;;;;13.88;7.65;;;16.50;99.90;;;;;;5027131;28;25109;-66
2022/06/05 01:07:25;;;;;;;15.60;8.13;;;16.50;99.90;;;;;;5027791;28;25051;-67
2022/06/05 01:09:52;;;;;;;14.32;8.00;;;16.50;99.90;;;;;;5027381;28;25071;-68
2022/06/05 01:12:42;;;;;;;12.93;7.63;;;16.60;99.90;;;;;;5028586;28;25071;-67
2022/06/05 01:15:23;;;;;;;11.13;8.10;;;16.80;99.90;;;;;;5021076;28;25097;-69
2022/06/05 01:18:04;;;;;;;10.43;7.63;;;16.80;99.90;;;;;;5024742;28;25065;-70
2022/06/05 01:20:39;;;;;;;16.93;8.53;;;16.90;99.90;;;;;;5029428;28;25094;-68
2022/06/05 01:23:41;;;;;;;11.77;7.80;;;16.90;99.90;;;;;;5028218;28;25152;-68
2022/06/05 01:26:21;;;;;;;13.10;8.80;;;17.00;99.90;;;;;;5011444;28;25101;-68
2022/06/05 01:28:53;;;;;;;12.07;8.60;;;17.00;99.90;;;;;;5023988;28;25099;-68
2022/06/05 01:31:27;;;;;;;15.38;9.18;;;17.20;99.90;;;;;;5023567;28;25090;-69
2022/06/05 01:34:25;;;;;;;10.65;8.25;;;17.10;99.90;;;;;;5023861;28;25065;-67
2022/06/05 01:37:29;;;;;;;12.68;9.32;;;16.80;99.90;;;;;;5005617;28;25132;-67
2022/06/05 01:40:24;;;;;;;14.00;9.25;;;16.80;99.90;;;;;;5028300;28;25057;-67
2022/06/05 01:42:57;;;;;;;16.70;8.93;;;16.90;99.90;;;;;;5027738;28;25069;-68
2022/06/05 01:45:29;;;;;;;22.15;12.05;;;16.80;99.90;;;;;;5022485;28;25089;-68
2022/06/05 01:47:55;;;;;;;;;;;16.80;99.90;;;;;;5027438;28;25127;-69
2022/06/05 01:50:43;;;;;;;25.73;14.20;;;16.60;99.90;;;;;;5025832;28;25093;-68
2022/06/05 01:53:15;;;;;;;25.80;13.60;;;16.30;99.90;;;;;;5023848;28;25144;-69
2022/06/05 01:55:50;;;;;;;20.88;14.52;;;16.30;99.90;;;;;;5025395;28;25102;-68
2022/06/05 01:58:21;;;;;;;28.30;13.55;;;15.80;99.90;;;;;;5026462;28;25073;-69
2022/06/05 02:00:51;;;;;;;21.25;13.98;;;15.50;99.90;;;;;;5023795;28;25057;-66
2022/06/05 02:03:27;;;;;;;23.38;13.80;;;15.40;99.90;;;;;;5025084;28;25049;-67
2022/06/05 02:05:57;;;;;;;24.30;14.90;;;15.30;99.90;;;;;;5026557;28;25134;-68
2022/06/05 02:08:26;;;;;;;23.42;14.52;;;15.00;99.90;;;;;;5025252;28;25055;-70
2022/06/05 02:10:55;;;;;;;27.73;15.65;;;15.00;99.90;;;;;;5027184;28;25173;-69
2022/06/05 02:13:21;;;;;;;29.85;16.70;;;15.10;99.90;;;;;;5026456;28;25077;-70
2022/06/05 02:15:48;;;;;;;31.35;17.38;;;14.90;99.90;;;;;;5025698;28;25085;-70
2022/06/05 02:18:14;;;;;;;26.67;15.40;;;15.10;99.90;;;;;;5026363;28;25122;-71
2022/06/05 02:20:43;;;;;;;25.35;15.25;;;15.00;99.90;;;;;;5026946;28;25099;-69
2022/06/05 02:23:21;;;;;;;24.83;15.45;;;14.60;99.90;;;;;;5026333;28;25084;-71
2022/06/05 02:25:47;;;;;;;22.17;15.63;;;15.10;99.90;;;;;;5024556;28;25061;-71
2022/06/05 02:28:15;;;;;;;26.40;16.17;;;15.10;99.90;;;;;;5026856;28;25095;-71
2022/06/05 02:30:53;;;;;;;25.63;15.65;;;14.60;99.90;;;;;;5023869;28;25057;-71
2022/06/05 02:33:28;;;;;;;23.33;15.82;;;14.80;99.90;;;;;;5026287;28;25081;-69
2022/06/05 02:36:32;;;;;;;30.58;16.92;;;14.70;99.90;;;;;;5029601;28;25102;-71
2022/06/05 02:39:14;;;;;;;30.25;16.95;;;14.40;99.90;;;;;;5026028;28;25060;-71
2022/06/05 02:41:40;;;;;;;;;;;14.80;99.90;;;;;;5029275;28;25069;-73
2022/06/05 02:44:29;;;;;;;29.55;16.45;;;14.60;99.90;;;;;;5030723;28;25067;-69
2022/06/05 02:47:13;;;;;;;29.40;17.08;;;14.90;99.90;;;;;;5030487;28;25049;-69
2022/06/05 02:49:48;;;;;;;23.60;16.50;;;14.50;99.90;;;;;;5029604;28;25096;-70
2022/06/05 02:52:15;;;;;;;29.10;16.33;;;14.40;99.90;;;;;;5032064;28;25156;-70
2022/06/05 02:54:46;;;;;;;25.45;16.52;;;14.60;99.90;;;;;;5027707;28;25067;-69
2022/06/05 02:57:13;;;;;;;25.50;15.75;;;14.20;99.90;;;;;;5026047;28;25059;-69
2022/06/05 02:59:40;;;;;;;22.50;16.70;;;14.50;99.90;;;;;;5019504;28;25111;-70
2022/06/05 03:04:50;;;;;;;27.75;16.20;;;13.90;99.90;;;;;;5024183;28;25080;-68
2022/06/05 03:07:16;;;;;;;26.73;16.67;;;14.30;99.90;;;;;;5026387;28;25159;-69
2022/06/05 03:09:42;;;;;;;22.88;16.45;;;14.40;99.90;;;;;;5025851;28;25048;-70
2022/06/05 03:12:08;;;;;;;24.30;15.93;;;14.00;99.90;;;;;;5022915;28;25152;-70
2022/06/05 03:14:33;;;;;;;26.30;15.45;;;14.20;99.90;;;;;;5023594;28;25062;-70
2022/06/05 03:16:59;;;;;;;26.92;15.98;;;14.30;99.90;;;;;;5025391;28;25099;-70
2022/06/05 03:19:25;;;;;;;24.85;16.75;;;14.00;99.90;;;;;;5025309;28;25064;-70
2022/06/05 03:21:50;;;;;;;24.85;15.98;;;13.90;99.90;;;;;;5025163;28;25094;-70
2022/06/05 03:24:16;;;;;;;24.95;16.08;;;14.00;99.90;;;;;;5022979;28;25056;-69
2022/06/05 03:26:42;;;;;;;25.58;16.02;;;14.00;99.90;;;;;;5021380;28;25132;-69
2022/06/05 03:29:08;;;;;;;23.67;15.70;;;14.20;99.90;;;;;;5024869;28;25054;-69
2022/06/05 03:31:35;;;;;;;25.92;16.02;;;14.40;99.90;;;;;;5021372;28;25074;-70
2022/06/05 03:34:01;;;;;;;25.80;14.77;;;14.00;99.90;;;;;;5023550;28;25067;-69
2022/06/05 03:36:26;;;;;;;23.27;16.27;;;13.90;99.90;;;;;;5022210;28;25074;-69
2022/06/05 03:38:52;;;;;;;28.48;17.17;;;14.00;99.90;;;;;;5021819;28;25144;-69
2022/06/05 03:41:19;;;;;;;31.27;18.35;;;14.00;99.90;;;;;;5041997;28;25071;-70
2022/06/05 03:43:45;;;;;;;26.75;16.55;;;14.10;99.90;;;;;;5024811;28;25069;-70
2022/06/05 03:46:12;;;;;;;25.42;17.38;;;13.90;99.90;;;;;;5025996;28;25099;-69
2022/06/05 03:48:39;;;;;;;25.55;16.65;;;14.00;99.90;;;;;;5026021;28;25090;-69
2022/06/05 03:51:06;;;;;;;23.65;17.05;;;14.00;99.90;;;;;;5025141;28;25102;-69
2022/06/05 03:53:32;;;;;;;23.42;15.20;;;14.10;99.90;;;;;;5024734;28;25074;-69
2022/06/05 03:55:57;;;;;;;30.02;18.45;;;13.80;99.90;;;;;;5021342;28;25065;-70
2022/06/05 03:58:23;;;;;;;25.38;16.23;;;14.00;99.90;;;;;;5021766;28;25071;-69
2022/06/05 04:00:51;;;;;;;25.58;17.55;;;14.20;99.90;;;;;;5026033;28;25100;-69
2022/06/05 04:03:17;;;;;;;29.42;17.85;;;14.00;99.90;;;;;;5023106;28;25130;-68
2022/06/05 04:05:44;;;;;;;26.42;16.90;;;14.30;99.90;;;;;;5023808;28;25109;-70
2022/06/05 04:08:10;;;;;;;25.17;16.98;;;13.90;99.90;;;;;;5023139;28;25110;-70
2022/06/05 04:10:37;;;;;;;30.63;17.35;;;13.90;99.90;;;;;;5023881;28;25098;-70
2022/06/05 04:13:03;;;;;;;22.92;15.82;;;14.20;99.90;;;;;;5021807;28;25098;-69
2022/06/05 04:15:28;;;;;;;25.42;17.17;;;13.90;99.90;;;;;;5020877;28;25105;-72
2022/06/05 04:17:54;;;;;;;32.63;17.58;;;13.90;99.90;;;;;;5029060;28;25140;-70
2022/06/05 04:20:19;;;;;;;26.75;17.90;;;14.00;99.90;;;;;;5030687;28;25049;-69
2022/06/05 04:22:45;;;;;;;25.40;17.17;;;14.00;99.90;;;;;;5029661;28;25109;-69
2022/06/05 04:25:14;;;;;;;24.17;16.48;;;14.00;99.90;;;;;;5028568;28;25088;-69
2022/06/05 04:27:39;;;;;;;26.63;18.23;;;13.90;99.90;;;;;;5030656;28;25073;-69
2022/06/05 04:30:06;;;;;;;30.20;18.20;;;14.00;99.90;;;;;;5027644;28;25135;-69
2022/06/05 04:32:32;;;;;;;28.00;17.30;;;14.00;99.90;;;;;;5028410;28;25099;-69
2022/06/05 04:34:57;;;;;;;22.63;16.80;;;13.90;99.90;;;;;;5025534;28;25100;-71
2022/06/05 04:37:23;;;;;;;28.08;19.33;;;14.00;99.90;;;;;;5022007;28;25136;-70
2022/06/05 04:39:48;;;;;;;23.85;16.45;;;14.00;99.90;;;;;;5026807;28;25058;-71
2022/06/05 04:42:14;;;;;;;25.45;16.13;;;13.90;99.90;;;;;;5030510;28;25156;-71
2022/06/05 04:44:40;;;;;;;27.35;17.48;;;13.90;99.90;;;;;;5025665;28;25084;-70
2022/06/05 04:47:05;;;;;;;32.75;17.42;;;13.80;99.90;;;;;;5026086;28;25139;-71
2022/06/05 04:49:31;;;;;;;28.60;18.65;;;13.90;99.90;;;;;;5023390;28;25094;-69
2022/06/05 04:51:56;;;;;;;27.02;17.23;;;14.10;99.90;;;;;;5026345;28;25059;-69
2022/06/05 04:54:22;;;;;;;25.08;16.98;;;14.00;99.90;;;;;;5025648;28;25132;-68
2022/06/05 04:56:47;;;;;;;27.70;16.70;;;14.00;99.90;;;;;;5024438;28;25061;-69
2022/06/05 04:59:14;;;;;;;26.40;17.10;;;14.00;99.90;;;;;;5023465;28;25113;-69
2022/06/05 05:01:40;;;;;;;30.20;19.48;;;14.00;99.90;;;;;;5026255;28;25132;-69
2022/06/05 05:04:09;;;;;;;24.65;16.85;;;13.80;99.90;;;;;;5025887;28;25066;-70
2022/06/05 05:06:37;;;;;;;28.83;18.70;;;13.90;99.90;;;;;;5010045;28;25114;-70
2022/06/05 05:09:04;;;;;;;25.23;17.38;;;14.00;99.90;;;;;;5024954;28;25086;-69
2022/06/05 05:11:30;;;;;;;29.25;18.27;;;13.80;99.90;;;;;;5028912;28;25092;-69
2022/06/05 05:13:56;;;;;;;22.75;16.27;;;14.00;99.90;;;;;;5023633;28;25137;-70
2022/06/05 05:16:23;;;;;;;24.80;17.75;;;14.00;99.90;;;;;;5026954;28;25072;-69
2022/06/05 05:18:49;;;;;;;28.75;16.88;;;13.80;99.90;;;;;;5029911;28;25116;-69
2022/06/05 05:21:18;;;;;;;26.20;17.92;;;13.80;99.90;;;;;;5031711;28;25151;-69
2022/06/05 05:23:45;;;;;;;26.35;17.27;;;13.90;99.90;;;;;;5028184;28;25097;-69
2022/06/05 05:26:17;;;;;;;31.00;19.42;;;13.80;99.90;;;;;;5028504;28;25105;-68
2022/06/05 05:28:45;;;;;;;26.95;17.40;;;14.00;99.90;;;;;;5024529;28;25059;-69
2022/06/05 05:31:14;;;;;;;31.15;18.38;;;13.80;99.90;;;;;;5021718;28;25078;-69
2022/06/05 05:33:41;;;;;;;29.17;18.45;;;13.90;99.90;;;;;;5026005;28;25068;-68
2022/06/05 05:36:08;;;;;;;30.40;19.30;;;13.80;99.90;;;;;;5025869;28;25076;-69
2022/06/05 05:38:35;;;;;;;36.60;18.80;;;13.80;99.90;;;;;;5025012;28;25131;-69
2022/06/05 05:43:45;;;;;;;27.40;18.27;;;13.80;99.90;;;;;;5024361;28;25078;-68
2022/06/05 05:46:22;;;;;;;26.75;17.60;;;14.00;99.90;;;;;;5024830;28;25051;-68
2022/06/05 05:48:47;;;;;;;29.20;17.88;;;13.90;99.90;;;;;;5025911;28;25098;-68
2022/06/05 05:51:15;;;;;;;26.42;17.77;;;14.00;99.90;;;;;;5023324;28;25099;-70
2022/06/05 05:53:42;;;;;;;29.60;17.75;;;14.00;99.90;;;;;;5028041;28;25163;-67
2022/06/05 05:56:12;;;;;;;25.42;18.08;;;14.00;99.90;;;;;;5026841;28;25123;-68
2022/06/05 05:58:39;;;;;;;27.23;17.63;;;13.90;99.90;;;;;;5027816;28;25062;-67
2022/06/05 06:01:08;;;;;;;25.50;17.85;;;13.90;99.90;;;;;;5030915;28;25146;-66
2022/06/05 06:03:34;;;;;;;26.80;18.77;;;14.00;99.90;;;;;;5034002;28;25082;-66
2022/06/05 06:06:00;;;;;;;27.38;18.88;;;14.00;99.90;;;;;;5029670;28;25165;-66
2022/06/05 06:08:27;;;;;;;28.73;18.50;;;14.10;99.90;;;;;;5027394;28;25053;-67
2022/06/05 06:10:53;;;;;;;24.00;18.45;;;14.10;99.90;;;;;;5027060;28;25087;-67
2022/06/05 06:13:19;;;;;;;28.13;17.17;;;14.20;99.90;;;;;;5026260;28;25062;-66
2022/06/05 06:15:44;;;;;;;27.35;17.85;;;14.10;99.90;;;;;;5026157;28;25077;-70
2022/06/05 06:18:10;;;;;;;26.08;17.92;;;14.10;99.90;;;;;;5027357;28;25053;-69
2022/06/05 06:20:36;;;;;;;26.60;18.40;;;14.10;99.90;;;;;;5028906;28;25065;-67
2022/06/05 06:23:02;;;;;;;27.60;18.35;;;14.20;99.90;;;;;;5027170;28;25161;-67
2022/06/05 06:25:27;;;;;;;27.92;19.42;;;14.30;99.90;;;;;;5021368;28;25075;-67
2022/06/05 06:27:53;;;;;;;28.52;18.35;;;14.30;99.90;;;;;;5023958;28;25054;-68
2022/06/05 06:30:19;;;;;;;30.75;19.65;;;14.30;99.90;;;;;;5025588;28;25073;-67
2022/06/05 06:32:44;;;;;;;26.98;18.92;;;14.30;99.90;;;;;;5023961;28;25153;-66
2022/06/05 06:35:10;;;;;;;30.35;18.92;;;14.30;99.90;;;;;;5025243;28;25165;-68
2022/06/05 06:37:36;;;;;;;24.85;17.08;;;14.30;99.90;;;;;;5025057;28;25067;-67
2022/06/05 06:40:02;;;;;;;27.23;17.58;;;14.30;99.90;;;;;;5025854;28;25127;-67
2022/06/05 06:42:28;;;;;;;29.55;18.95;;;14.40;99.90;;;;;;5025319;28;25129;-67
2022/06/05 06:44:54;;;;;;;24.02;17.80;;;14.40;99.90;;;;;;5020778;28;24901;-66
2022/06/05 06:47:20;;;;;;;24.60;18.38;;;14.40;99.90;;;;;;5024710;28;25078;-68
2022/06/05 06:49:46;;;;;;;28.52;19.13;;;14.40;99.90;;;;;;5023642;28;25057;-66
2022/06/05 06:52:11;;;;;;;25.42;18.13;;;14.40;99.90;;;;;;5024179;28;25134;-67
2022/06/05 06:54:37;;;;;;;25.27;16.92;;;14.40;99.90;;;;;;5024750;28;25142;-69
2022/06/05 06:57:02;;;;;;;26.98;18.85;;;14.40;99.90;;;;;;5024921;28;25114;-66
2022/06/05 06:59:29;;;;;;;26.55;17.48;;;14.50;99.90;;;;;;5022621;28;25077;-68
2022/06/05 07:01:54;;;;;;;23.70;17.75;;;14.50;99.90;;;;;;5022859;28;25162;-69
2022/06/05 07:04:21;;;;;;;24.42;16.98;;;14.50;99.90;;;;;;5026765;28;25088;-68
2022/06/05 07:06:47;;;;;;;25.40;18.00;;;14.60;99.90;;;;;;5024857;28;25092;-67
2022/06/05 07:09:14;;;;;;;26.27;17.70;;;14.60;99.90;;;;;;5025868;28;25086;-67
2022/06/05 07:11:40;;;;;;;27.70;17.92;;;14.70;99.90;;;;;;5029705;28;25075;-67
2022/06/05 07:14:06;;;;;;;24.65;16.83;;;14.70;99.90;;;;;;5025221;28;25064;-69
2022/06/05 07:16:32;;;;;;;24.35;17.25;;;14.80;99.90;;;;;;5024507;28;25107;-67
2022/06/05 07:18:57;;;;;;;22.75;17.45;;;14.90;99.90;;;;;;5022505;28;25100;-69
2022/06/05 07:21:25;;;;;;;24.50;16.52;;;15.00;99.90;;;;;;5019638;28;24991;-70
2022/06/05 07:23:50;;;;;;;24.60;16.58;;;15.10;99.90;;;;;;5019795;28;25081;-68
2022/06/05 07:26:19;;;;;;;24.00;16.67;;;15.20;99.90;;;;;;5020859;28;25120;-68
2022/06/05 07:28:46;;;;;;;29.08;17.92;;;15.40;99.90;;;;;;5021169;28;25100;-68
2022/06/05 07:31:14;;;;;;;25.88;16.75;;;15.40;99.90;;;;;;5025633;28;25114;-68
2022/06/05 07:33:43;;;;;;;22.42;17.75;;;15.40;99.90;;;;;;5021210;28;25147;-70
2022/06/05 07:36:13;;;;;;;21.95;16.95;;;15.60;99.90;;;;;;5024364;28;25123;-69
2022/06/05 07:38:40;;;;;;;23.88;16.30;;;15.70;99.90;;;;;;5023534;28;25078;-69
2022/06/05 07:41:13;;;;;;;25.10;16.48;;;15.80;99.90;;;;;;5021246;28;25138;-70
2022/06/05 07:43:47;;;;;;;21.88;16.08;;;15.90;99.90;;;;;;5020527;28;25062;-70
2022/06/05 07:46:17;;;;;;;19.85;15.75;;;15.90;99.90;;;;;;5021899;28;25101;-68
2022/06/05 07:48:46;;;;;;;22.15;17.80;;;16.20;99.90;;;;;;5024391;28;25080;-69
2022/06/05 07:54:26;;;;;;;17.27;15.38;;;16.90;99.90;;;;;;5023050;28;25076;-68
2022/06/05 07:56:56;;;;;;;23.33;15.73;;;16.90;99.90;;;;;;5024423;28;25156;-70
2022/06/05 07:59:23;;;;;;;18.30;15.10;;;17.20;99.90;;;;;;5019269;28;25105;-68
2022/06/05 08:01:49;;;;;;;20.30;15.13;;;17.30;99.90;;;;;;5022854;28;25147;-69
2022/06/05 08:04:18;;;;;;;21.60;14.60;;;17.50;99.90;;;;;;5022447;28;25091;-67
2022/06/05 08:06:43;;;;;;;22.55;15.32;;;17.70;99.90;;;;;;5023264;28;25075;-68
2022/06/05 08:09:09;;;;;;;15.48;13.82;;;18.00;99.90;;;;;;5021785;28;25138;-68
2022/06/05 08:11:36;;;;;;;17.20;13.93;;;18.00;99.90;;;;;;5024156;28;25109;-68
2022/06/05 08:14:02;;;;;;;14.73;13.20;;;18.20;99.90;;;;;;5023010;28;25131;-67
2022/06/05 08:16:29;;;;;;;15.02;12.45;;;18.60;99.90;;;;;;5023556;28;25062;-67
2022/06/05 08:18:54;;;;;;;15.52;13.82;;;19.00;99.90;;;;;;5023182;28;25072;-68
2022/06/05 08:21:21;;;;;;;14.73;12.60;;;19.10;99.90;;;;;;5024142;28;25131;-69
2022/06/05 08:23:47;;;;;;;14.20;12.63;;;19.30;99.90;;;;;;5022958;28;25082;-70
2022/06/05 08:26:13;;;;;;;13.80;11.93;;;19.60;99.90;;;;;;5021840;28;25082;-69
2022/06/05 08:28:39;;;;;;;14.20;11.07;;;19.70;99.90;;;;;;5022199;28;25066;-68
2022/06/05 08:31:05;;;;;;;15.18;11.25;;;19.70;99.90;;;;;;5021478;28;25140;-69
2022/06/05 08:33:30;;;;;;;15.80;12.50;;;19.80;99.90;;;;;;5021116;28;25126;-68
2022/06/05 08:35:56;;;;;;;14.77;12.10;;;20.00;99.90;;;;;;5020886;28;25075;-68
2022/06/05 08:41:27;;;;;;;16.15;11.82;;;20.60;99.90;;;;;;5022977;28;25076;-68
2022/06/05 08:44:12;;;;;;;14.73;12.18;;;20.70;99.90;;;;;;5020713;28;25079;-69
2022/06/05 08:46:55;;;;;;;12.57;11.23;;;20.30;99.90;;;;;;5016975;28;25127;-71
2022/06/05 08:49:47;;;;;;;14.05;12.23;;;20.40;99.90;;;;;;5020271;28;25058;-68
2022/06/05 08:52:18;;;;;;;13.83;11.77;;;20.30;99.90;;;;;;5024619;28;25052;-65
2022/06/05 08:54:53;;;;;;;13.65;11.38;;;20.30;99.90;;;;;;5027883;28;25067;-66
2022/06/05 08:57:32;;;;;;;13.85;12.43;;;20.50;99.90;;;;;;5022460;28;25085;-68
2022/06/05 09:00:07;;;;;;;12.95;11.63;;;20.50;99.90;;;;;;5025152;28;25075;-67
2022/06/05 09:02:58;;;;;;;15.48;12.55;;;20.20;99.90;;;;;;5025987;28;25060;-68
2022/06/05 09:05:42;;;;;;;13.35;12.05;;;20.20;99.90;;;;;;5026755;28;25060;-69
2022/06/05 09:08:25;;;;;;;13.30;11.80;;;20.20;99.90;;;;;;5025719;28;25075;-70
2022/06/05 09:11:19;;;;;;;14.02;12.43;;;20.70;99.90;;;;;;5026974;28;25053;-67
2022/06/05 09:13:58;;;;;;;14.77;12.57;;;20.90;99.90;;;;;;5005779;28;25165;-68
2022/06/05 09:16:28;;;;;;;15.48;12.68;;;20.70;99.90;;;;;;5027288;28;25082;-68
2022/06/05 09:18:54;;;;;;;14.27;12.48;;;20.40;99.90;;;;;;5029282;28;25058;-69
2022/06/05 09:21:45;;;;;;;14.45;12.90;;;20.20;99.90;;;;;;5024089;28;25058;-68
2022/06/05 09:24:57;;;;;;;14.80;12.65;;;20.20;99.90;;;;;;4988829;28;25108;-67
2022/06/05 09:27:41;;;;;;;16.05;12.90;;;20.20;99.90;;;;;;5023046;28;25061;-68
2022/06/05 09:30:23;;;;;;;16.00;12.27;;;20.50;99.90;;;;;;5017724;28;25088;-69
2022/06/05 09:33:09;;;;;;;15.38;13.77;;;20.60;99.90;;;;;;5015413;28;25065;-68
2022/06/05 09:35:43;;;;;;;18.40;14.10;;;20.40;99.90;;;;;;5017003;28;25116;-67
2022/06/05 09:38:24;;;;;;;15.00;13.40;;;20.40;99.90;;;;;;5027092;28;25090;-68
2022/06/05 09:40:59;;;;;;;14.73;12.93;;;20.40;99.90;;;;;;5029327;28;25059;-68
2022/06/05 09:43:38;;;;;;;18.65;13.98;;;20.50;99.90;;;;;;5034446;28;25070;-72
2022/06/05 09:46:28;;;;;;;15.93;13.27;;;20.50;99.90;;;;;;5024556;28;25063;-70
2022/06/05 09:49:02;;;;;;;17.33;13.35;;;20.60;99.90;;;;;;5029099;28;25066;-70
2022/06/05 09:51:28;;;;;;;15.05;13.30;;;20.80;99.90;;;;;;5030052;28;25058;-71
2022/06/05 09:54:04;;;;;;;15.45;13.80;;;20.80;99.90;;;;;;5029203;28;25083;-70
2022/06/05 10:00:19;;;;;;;14.82;13.07;;;20.30;99.90;;;;;;5025867;28;25140;-71
2022/06/05 10:02:49;;;;;;;20.83;15.45;;;20.50;99.90;;;;;;5022559;28;25100;-70
2022/06/05 10:05:26;;;;;;;16.50;14.80;;;20.40;99.90;;;;;;5027552;28;25076;-72
2022/06/05 10:07:56;;;;;;;20.95;15.25;;;20.20;99.90;;;;;;5026267;28;25143;-70
2022/06/05 10:10:32;;;;;;;19.10;16.67;;;20.30;99.90;;;;;;5029181;28;25101;-71
2022/06/05 10:13:17;;;;;;;15.98;14.05;;;20.30;99.90;;;;;;5026166;28;25076;-70
2022/06/05 10:16:00;;;;;;;16.80;13.50;;;20.30;99.90;;;;;;5024483;28;25077;-69
2022/06/05 10:18:56;;;;;;;18.13;14.63;;;20.40;99.90;;;;;;5025402;28;25126;-69
2022/06/05 10:21:24;;;;;;;15.07;13.52;;;20.30;99.90;;;;;;5025411;28;25066;-71
2022/06/05 10:24:28;;;;;;;16.63;14.82;;;20.30;99.90;;;;;;5023385;28;25056;-72
2022/06/05 10:26:58;;;;;;;18.45;15.35;;;20.20;99.90;;;;;;4995587;28;25160;-69
2022/06/05 10:29:30;;;;;;;18.27;14.35;;;20.30;99.90;;;;;;5023511;28;25059;-69
2022/06/05 10:31:55;;;;;;;;;;;20.30;99.90;;;;;;5021816;28;25074;-69
2022/06/05 10:34:28;;;;;;;21.58;16.23;;;20.30;99.90;;;;;;5025533;28;24110;-71
2022/06/05 10:37:23;;;;;;;20.90;16.63;;;20.20;99.90;;;;;;5026232;28;25096;-70
2022/06/05 10:39:57;;;;;;;17.90;15.38;;;20.10;99.90;;;;;;5016925;28;25156;-70
2022/06/05 10:42:53;;;;;;;17.80;15.80;;;20.20;99.90;;;;;;5024989;28;25085;-70
2022/06/05 10:46:09;;;;;;;17.15;14.27;;;20.30;99.90;;;;;;5021009;28;25057;-69
2022/06/05 10:49:17;;;;;;;18.08;15.63;;;20.50;99.90;;;;;;4994840;28;25063;-70
2022/06/05 10:52:09;;;;;;;20.60;16.67;;;20.50;99.90;;;;;;4925226;29;25091;-68
2022/06/05 10:54:54;;;;;;;17.75;15.20;;;20.20;99.90;;;;;;4978478;28;25054;-67
2022/06/05 10:57:34;;;;;;;21.05;16.75;;;20.20;99.90;;;;;;5025928;28;25089;-69
2022/06/05 11:00:03;;;;;;;17.45;15.25;;;20.00;99.90;;;;;;5040992;28;25065;-69
2022/06/05 11:03:00;;;;;;;18.58;16.35;;;20.20;99.90;;;;;;5038403;28;25144;-68
2022/06/05 11:05:44;;;;;;;16.98;15.20;;;20.30;99.90;;;;;;5030935;28;25073;-68
2022/06/05 11:08:25;;;;;;;18.13;15.20;;;20.40;99.90;;;;;;5028906;28;25140;-70
2022/06/05 11:14:01;;;;;;;19.15;15.63;;;20.40;99.90;;;;;;5019307;28;25055;-68
2022/06/05 11:16:30;;;;;;;21.80;16.17;;;20.30;99.90;;;;;;5016836;28;25083;-69
2022/06/05 11:19:25;;;;;;;16.77;15.02;;;20.00;99.90;;;;;;5013837;28;25059;-69
2022/06/05 11:21:52;;;;;;;19.13;16.35;;;20.10;99.90;;;;;;5010626;28;25046;-69
2022/06/05 11:24:29;;;;;;;18.10;16.17;;;20.00;99.90;;;;;;5010549;28;25111;-69
2022/06/05 11:27:20;;;;;;;20.65;18.05;;;20.10;99.90;;;;;;5019142;28;25068;-69
2022/06/05 11:30:10;;;;;;;21.55;17.23;;;20.00;99.90;;;;;;5023722;28;25052;-69
2022/06/05 11:32:57;;;;;;;20.45;18.15;;;19.70;99.90;;;;;;5015617;28;25120;-68
2022/06/05 11:36:00;;;;;;;22.27;18.80;;;19.70;99.90;;;;;;5016500;28;25060;-70
2022/06/05 11:39:12;;;;;;;21.40;19.10;;;19.50;99.90;;;;;;5020004;28;25074;-70
2022/06/05 11:42:03;;;;;;;23.17;19.20;;;19.40;99.90;;;;;;5018124;28;25063;-69
2022/06/05 11:44:35;;;;;;;22.57;19.57;;;19.40;99.90;;;;;;5017812;28;25148;-70
2022/06/05 11:47:10;;;;;;;22.88;20.58;;;19.60;99.90;;;;;;5020181;28;25103;-70
2022/06/05 11:49:50;;;;;;;24.42;21.77;;;19.70;99.90;;;;;;5015367;28;25048;-69
2022/06/05 11:52:23;;;;;;;23.27;20.85;;;19.80;99.90;;;;;;5016130;28;25081;-69
2022/06/05 11:55:03;;;;;;;22.17;19.95;;;19.70;99.90;;;;;;5017569;28;25048;-66
2022/06/05 11:57:49;;;;;;;28.88;23.02;;;19.40;99.90;;;;;;5017065;28;25057;-68
2022/06/05 12:00:20;;;;;;;25.08;22.55;;;19.20;99.90;;;;;;5019292;28;25072;-68
2022/06/05 12:03:11;;;;;;;27.25;23.38;;;18.90;99.90;;;;;;5020236;28;25118;-69
2022/06/05 12:05:55;;;;;;;25.67;22.10;;;18.80;99.90;;;;;;5024143;28;25058;-68
2022/06/05 12:08:53;;;;;;;27.38;24.02;;;18.80;99.90;;;;;;5022214;28;25128;-68
2022/06/05 12:11:45;;;;;;;28.65;25.60;;;18.80;99.90;;;;;;5016905;28;25078;-68
2022/06/05 12:14:27;;;;;;;27.67;24.55;;;18.80;99.90;;;;;;5026462;28;25071;-67
2022/06/05 12:17:12;;;;;;;;;;;18.70;99.90;;;;;;5024795;28;25497;-69
2022/06/05 12:20:04;;;;;;;30.58;26.17;;;18.60;99.90;;;;;;5022005;28;25089;-69
2022/06/05 12:22:48;;;;;;;;;;;18.70;99.90;;;;;;5022054;28;25087;-67
2022/06/05 12:25:42;;;;;;;33.13;26.48;;;18.60;99.90;;;;;;5021767;28;25133;-69
2022/06/05 12:28:17;;;;;;;34.17;27.92;;;18.60;99.90;;;;;;5018814;28;25073;-70
2022/06/05 12:30:49;;;;;;;32.08;26.85;;;18.60;99.90;;;;;;5005773;28;25075;-70
2022/06/05 12:33:24;;;;;;;33.30;28.67;;;18.60;99.90;;;;;;5026647;28;25053;-69
2022/06/05 12:35:53;;;;;;;32.72;27.85;;;18.70;99.90;;;;;;5027313;28;25062;-69
2022/06/05 12:38:47;;;;;;;32.35;27.13;;;18.80;99.90;;;;;;5030036;28;25045;-68
2022/06/05 12:41:19;;;;;;;32.28;28.08;;;18.90;99.90;;;;;;5025689;28;25073;-69
2022/06/05 12:44:09;;;;;;;;;;;18.80;99.90;;;;;;5031519;28;25107;-68
2022/06/05 12:47:19;;;;;;;32.20;26.35;;;18.70;99.90;;;;;;5031156;28;25076;-69
2022/06/05 12:49:53;;;;;;;31.23;26.88;;;18.70;99.90;;;;;;5026268;28;25149;-70
2022/06/05 12:52:37;;;;;;;28.67;24.70;;;18.60;99.90;;;;;;5021907;28;25049;-69
2022/06/05 12:55:17;;;;;;;37.15;27.23;;;18.50;99.90;;;;;;5030175;28;25070;-68
2022/06/05 12:57:45;;;;;;;33.40;27.65;;;18.50;99.90;;;;;;5022145;28;25091;-69
2022/06/05 13:00:32;;;;;;;30.33;25.52;;;18.20;99.90;;;;;;5025895;28;25150;-69
2022/06/05 13:03:21;;;;;;;36.95;28.83;;;18.30;99.90;;;;;;5020012;28;25073;-68
2022/06/05 13:05:55;;;;;;;37.85;30.88;;;18.20;99.90;;;;;;5009525;28;25100;-67
2022/06/05 13:08:42;;;;;;;36.55;29.58;;;18.10;99.90;;;;;;5022856;28;25057;-68
2022/06/05 13:11:15;;;;;;;35.33;27.98;;;18.20;99.90;;;;;;5018688;28;25060;-68
2022/06/05 13:14:07;;;;;;;35.75;29.60;;;18.30;99.90;;;;;;5027456;28;25057;-69
2022/06/05 13:16:51;;;;;;;42.20;30.58;;;18.40;99.90;;;;;;5023260;28;25060;-69
2022/06/05 13:19:37;;;;;;;42.63;32.13;;;18.30;99.90;;;;;;5034806;28;25058;-69
2022/06/05 13:22:16;;;;;;;45.65;30.95;;;18.20;99.90;;;;;;5029759;28;25053;-69